createdAt,value
2022-09-01T00:00:14.119Z,16.00
2022-09-01T00:03:19.766Z,15.84
2022-09-01T00:06:24.203Z,15.70
2022-09-01T00:09:27.163Z,15.66
2022-09-01T00:12:30.416Z,15.68
2022-09-01T00:15:35.566Z,15.63
2022-09-01T00:18:38.051Z,15.76
2022-09-01T00:21:44.247Z,15.80
2022-09-01T00:24:47.013Z,15.91
2022-09-01T00:27:50.887Z,15.89
2022-09-01T00:30:53.551Z,15.84
2022-09-01T00:33:58.037Z,15.83
2022-09-01T00:37:00.565Z,15.67
2022-09-01T00:40:04.652Z,15.63
2022-09-01T00:43:39.982Z,15.49
2022-09-01T00:46:49.925Z,15.51
2022-09-01T00:49:58.068Z,15.50
2022-09-01T00:53:01.097Z,15.45
2022-09-01T00:56:05.160Z,15.36
2022-09-01T00:59:10.113Z,15.33
2022-09-01T01:02:13.128Z,15.16
2022-09-01T01:05:16.034Z,15.16
2022-09-01T01:08:19.934Z,15.06
2022-09-01T01:11:23.876Z,15.20
2022-09-01T01:14:29.035Z,15.15
2022-09-01T01:17:31.812Z,15.13
2022-09-01T01:20:53.258Z,15.16
2022-09-01T01:24:18.360Z,15.13
2022-09-01T01:27:22.001Z,14.99
2022-09-01T01:30:25.508Z,14.95
2022-09-01T01:33:34.646Z,15.01
2022-09-01T01:36:40.020Z,14.99
2022-09-01T01:39:44.370Z,15.09
2022-09-01T01:42:51.257Z,15.14
2022-09-01T01:45:59.197Z,15.17
2022-09-01T01:49:02.822Z,15.11
2022-09-01T01:52:08.063Z,15.09
2022-09-01T01:55:12.806Z,15.06
2022-09-01T01:58:19.798Z,15.12
2022-09-01T02:01:25.387Z,15.16
2022-09-01T02:04:34.012Z,15.15
2022-09-01T02:07:42.874Z,15.15
2022-09-01T02:10:47.992Z,15.12
2022-09-01T02:13:56.186Z,15.13
2022-09-01T02:16:59.427Z,15.04
2022-09-01T02:20:02.206Z,15.06
2022-09-01T02:23:10.758Z,15.00
2022-09-01T02:26:16.635Z,14.94
2022-09-01T02:29:22.889Z,14.90
2022-09-01T02:32:25.443Z,14.82
2022-09-01T02:35:37.866Z,14.78
2022-09-01T02:38:46.580Z,14.78
2022-09-01T02:41:50.606Z,14.72
2022-09-01T02:44:55.599Z,14.73
2022-09-01T02:47:59.616Z,14.76
2022-09-01T02:51:09.442Z,14.78
2022-09-01T02:54:19.168Z,14.84
2022-09-01T02:57:22.988Z,14.78
2022-09-01T03:00:31.424Z,14.64
2022-09-01T03:03:35.810Z,14.66
2022-09-01T03:06:39.925Z,14.60
2022-09-01T03:09:43.301Z,14.69
2022-09-01T03:12:46.088Z,14.62
2022-09-01T03:15:51.363Z,14.61
2022-09-01T03:18:54.447Z,14.80
2022-09-01T03:22:00.263Z,14.75
2022-09-01T03:25:04.621Z,14.76
2022-09-01T03:28:07.297Z,14.88
2022-09-01T03:31:10.231Z,14.88
2022-09-01T03:34:13.212Z,14.91
2022-09-01T03:37:18.978Z,15.01
2022-09-01T03:40:21.744Z,14.96
2022-09-01T03:43:27.179Z,15.04
2022-09-01T03:46:37.989Z,14.97
2022-09-01T03:49:43.588Z,14.98
2022-09-01T03:52:56.137Z,14.97
2022-09-01T03:56:00.157Z,14.89
2022-09-01T03:59:02.767Z,14.75
2022-09-01T04:02:07.774Z,14.78
2022-09-01T04:05:10.672Z,14.84
2022-09-01T04:08:14.451Z,14.85
2022-09-01T04:11:23.728Z,14.81
2022-09-01T04:14:27.582Z,14.69
2022-09-01T04:17:52.610Z,14.63
2022-09-01T04:20:57.701Z,14.55
2022-09-01T04:24:05.682Z,14.56
2022-09-01T04:27:09.373Z,14.52
2022-09-01T04:30:12.868Z,14.42
2022-09-01T04:33:18.552Z,14.36
2022-09-01T04:36:27.430Z,14.21
2022-09-01T04:39:30.384Z,14.19
2022-09-01T04:42:34.921Z,14.19
2022-09-01T04:45:38.043Z,14.22
2022-09-01T04:48:46.093Z,14.17
2022-09-01T04:51:53.867Z,14.17
2022-09-01T04:54:58.166Z,14.18
2022-09-01T04:58:08.356Z,14.22
2022-09-01T05:01:15.536Z,14.13
2022-09-01T05:04:23.114Z,14.18
2022-09-01T05:07:27.015Z,14.08
2022-09-01T05:10:30.308Z,14.16
2022-09-01T05:13:34.862Z,14.11
2022-09-01T05:16:41.096Z,14.15
2022-09-01T05:19:47.816Z,14.05
2022-09-01T05:22:50.496Z,14.15
2022-09-01T05:25:56.426Z,14.15
2022-09-01T05:29:02.048Z,14.12
2022-09-01T05:32:10.035Z,14.16
2022-09-01T05:35:13.231Z,14.10
2022-09-01T05:38:16.209Z,14.11
2022-09-01T05:41:21.167Z,14.07
2022-09-01T05:44:24.371Z,14.10
2022-09-01T05:47:26.990Z,14.14
2022-09-01T05:50:29.855Z,14.04
2022-09-01T05:53:34.168Z,14.07
2022-09-01T05:56:44.032Z,14.15
2022-09-01T05:59:53.628Z,14.17
2022-09-01T06:02:58.692Z,14.24
2022-09-01T06:06:08.799Z,14.23
2022-09-01T06:09:18.025Z,14.23
2022-09-01T06:12:23.808Z,14.25
2022-09-01T06:15:30.805Z,14.16
2022-09-01T06:18:34.319Z,14.25
2022-09-01T06:21:39.843Z,14.25
2022-09-01T06:24:43.470Z,14.40
2022-09-01T06:27:48.308Z,14.41
2022-09-01T06:30:52.492Z,14.35
2022-09-01T06:33:55.860Z,14.37
2022-09-01T06:36:59.658Z,14.38
2022-09-01T06:40:03.512Z,14.51
2022-09-01T06:43:12.561Z,14.61
2022-09-01T06:46:17.785Z,14.65
2022-09-01T06:49:23.530Z,14.64
2022-09-01T06:52:26.564Z,14.62
2022-09-01T06:55:33.870Z,14.69
2022-09-01T06:58:38.308Z,14.97
2022-09-01T07:01:41.804Z,15.22
2022-09-01T07:04:44.984Z,15.37
2022-09-01T07:08:05.192Z,15.64
2022-09-01T07:12:07.302Z,15.71
2022-09-01T07:18:03.327Z,15.74
2022-09-01T07:21:36.251Z,15.75
2022-09-01T07:24:31.931Z,15.82
2022-09-01T07:27:50.737Z,15.99
2022-09-01T07:30:54.497Z,16.00
2022-09-01T07:44:13.757Z,16.24
2022-09-01T07:47:19.860Z,16.28
2022-09-01T07:51:34.374Z,16.32
2022-09-01T07:53:49.956Z,16.33
2022-09-01T07:56:54.783Z,16.16
2022-09-01T07:59:57.857Z,16.15
2022-09-01T08:03:01.409Z,16.30
2022-09-01T08:06:13.152Z,16.24
2022-09-01T08:09:25.303Z,16.35
2022-09-01T08:12:57.270Z,16.40
2022-09-01T08:16:08.411Z,16.56
2022-09-01T08:19:19.392Z,16.71
2022-09-01T08:22:25.590Z,17.01
2022-09-01T08:25:29.762Z,17.16
2022-09-01T08:28:33.743Z,17.30
2022-09-01T08:31:37.262Z,17.30
2022-09-01T08:34:39.973Z,17.30
2022-09-01T08:37:43.812Z,17.42
2022-09-01T08:40:56.406Z,17.46
2022-09-01T08:44:19.624Z,17.50
2022-09-01T08:47:39.461Z,17.68
2022-09-01T08:50:53.260Z,17.86
2022-09-01T08:54:16.366Z,17.81
2022-09-01T08:57:38.145Z,17.83
2022-09-01T09:00:50.495Z,17.97
2022-09-01T09:04:18.613Z,18.01
2022-09-01T09:07:24.118Z,18.05
2022-09-01T09:10:49.700Z,18.12
2022-09-01T09:14:04.963Z,18.24
2022-09-01T09:17:08.066Z,18.29
2022-09-01T09:20:11.055Z,18.31
2022-09-01T09:23:25.910Z,18.52
2022-09-01T09:26:42.331Z,18.64
2022-09-01T09:30:03.000Z,18.93
2022-09-01T09:36:37.111Z,19.49
2022-09-01T09:39:40.121Z,19.61
2022-09-01T09:43:01.905Z,19.63
2022-09-01T09:46:34.397Z,19.61
2022-09-01T09:49:44.239Z,19.61
2022-09-01T09:52:51.116Z,19.60
2022-09-01T09:56:00.886Z,19.50
2022-09-01T09:59:46.299Z,19.53
2022-09-01T10:03:01.585Z,19.60
2022-09-01T10:06:29.177Z,19.49
2022-09-01T10:09:31.589Z,19.44
2022-09-01T10:12:35.252Z,19.48
2022-09-01T10:15:41.481Z,19.27
2022-09-01T10:18:48.572Z,19.26
2022-09-01T10:21:51.516Z,19.26
2022-09-01T10:24:54.445Z,19.29
2022-09-01T10:28:05.613Z,19.38
2022-09-01T10:31:09.416Z,19.45
2022-09-01T10:34:20.609Z,19.71
2022-09-01T10:37:23.805Z,20.06
2022-09-01T10:40:31.597Z,20.30
2022-09-01T10:43:43.800Z,20.48
2022-09-01T10:46:50.400Z,20.84
2022-09-01T10:49:53.931Z,21.17
2022-09-01T10:53:00.176Z,21.17
2022-09-01T10:56:28.182Z,21.28
2022-09-01T10:59:35.744Z,21.54
2022-09-01T11:02:46.728Z,21.45
2022-09-01T11:06:11.158Z,21.38
2022-09-01T11:09:25.598Z,21.40
2022-09-01T11:13:15.854Z,21.46
2022-09-01T11:16:46.622Z,21.70
2022-09-01T11:20:25.934Z,22.04
2022-09-01T11:23:30.831Z,22.26
2022-09-01T11:26:33.346Z,22.28
2022-09-01T11:29:56.382Z,22.29
2022-09-01T11:33:16.823Z,22.29
2022-09-01T11:36:44.798Z,22.39
2022-09-01T11:39:58.365Z,22.63
2022-09-01T11:43:12.424Z,22.89
2022-09-01T11:46:32.672Z,23.10
2022-09-01T11:49:40.629Z,23.34
2022-09-01T11:52:52.242Z,23.40
2022-09-01T11:55:57.319Z,23.57
2022-09-01T11:58:59.801Z,23.76
2022-09-01T12:02:04.072Z,23.62
2022-09-01T12:05:41.223Z,23.50
2022-09-01T12:08:53.716Z,23.76
2022-09-01T12:11:56.670Z,23.85
2022-09-01T12:15:11.292Z,24.21
2022-09-01T12:18:22.138Z,24.09
2022-09-01T12:21:34.095Z,23.72
2022-09-01T12:24:37.093Z,23.76
2022-09-01T12:27:39.814Z,23.82
2022-09-01T12:30:44.709Z,23.74
2022-09-01T12:33:48.401Z,23.83
2022-09-01T12:37:09.652Z,23.94
2022-09-01T12:40:31.613Z,24.14
2022-09-01T12:43:40.722Z,24.20
2022-09-01T12:46:46.724Z,24.28
2022-09-01T12:49:52.141Z,24.47
2022-09-01T12:53:02.605Z,24.74
2022-09-01T12:56:18.855Z,24.73
2022-09-01T12:59:35.710Z,24.70
2022-09-01T13:02:45.774Z,24.71
2022-09-01T13:05:53.679Z,24.73
2022-09-01T13:08:56.721Z,24.69
2022-09-01T13:12:17.295Z,24.58
2022-09-01T13:15:20.825Z,24.42
2022-09-01T13:18:25.684Z,24.20
2022-09-01T13:21:33.063Z,24.05
2022-09-01T13:24:35.767Z,23.87
2022-09-01T13:27:41.007Z,23.81
2022-09-01T13:30:47.137Z,23.89
2022-09-01T13:37:12.702Z,23.75
2022-09-01T13:40:18.748Z,23.88
2022-09-01T13:43:23.636Z,24.00
2022-09-01T13:46:26.425Z,23.98
2022-09-01T13:50:05.308Z,24.06
2022-09-01T13:52:55.520Z,24.27
2022-09-01T13:59:08.482Z,24.65
2022-09-01T14:02:11.321Z,24.64
2022-09-01T14:05:14.128Z,24.40
2022-09-01T14:08:20.916Z,24.40
2022-09-01T14:11:24.633Z,24.46
2022-09-01T14:15:11.069Z,24.35
2022-09-01T14:17:52.746Z,24.22
2022-09-01T14:21:00.145Z,24.19
2022-09-01T14:24:03.387Z,24.42
2022-09-01T14:27:06.198Z,24.57
2022-09-01T14:30:11.959Z,24.62
2022-09-01T14:33:14.598Z,24.37
2022-09-01T14:36:24.041Z,24.27
2022-09-01T14:39:26.591Z,24.48
2022-09-01T14:42:29.376Z,24.71
2022-09-01T14:45:31.934Z,24.85
2022-09-01T14:48:35.333Z,25.02
2022-09-01T14:55:01.371Z,25.21
2022-09-01T14:58:04.655Z,25.53
2022-09-01T15:01:32.739Z,25.54
2022-09-01T15:04:31.827Z,26.49
2022-09-01T15:07:35.577Z,27.34
2022-09-01T15:10:38.118Z,27.80
2022-09-01T15:13:42.205Z,27.87
2022-09-01T15:16:46.984Z,27.84
2022-09-01T15:19:49.860Z,28.34
2022-09-01T15:22:52.412Z,28.58
2022-09-01T15:25:55.924Z,29.02
2022-09-01T15:29:04.791Z,28.69
2022-09-01T15:32:07.717Z,28.37
2022-09-01T15:35:23.219Z,29.83
2022-09-01T15:38:30.520Z,31.72
2022-09-01T15:41:34.628Z,32.62
2022-09-01T15:44:37.513Z,33.17
2022-09-01T15:47:44.925Z,33.99
2022-09-01T15:50:48.615Z,34.32
2022-09-01T15:53:57.692Z,35.40
2022-09-01T15:57:00.704Z,35.39
2022-09-01T16:00:05.535Z,33.32
2022-09-01T16:03:14.544Z,30.54
2022-09-01T16:06:17.503Z,28.19
2022-09-01T16:09:22.963Z,26.43
2022-09-01T16:12:26.618Z,25.48
2022-09-01T16:15:29.771Z,24.68
2022-09-01T16:18:46.751Z,24.35
2022-09-01T16:22:03.204Z,24.05
2022-09-01T16:25:17.363Z,23.54
2022-09-01T16:28:32.494Z,23.19
2022-09-01T16:31:35.662Z,22.92
2022-09-01T16:34:46.788Z,22.84
2022-09-01T16:38:02.579Z,22.74
2022-09-01T16:41:44.588Z,22.65
2022-09-01T16:45:08.634Z,22.40
2022-09-01T16:48:25.834Z,22.14
2022-09-01T16:51:56.121Z,22.11
2022-09-01T16:55:13.146Z,22.01
2022-09-01T16:58:31.861Z,21.92
2022-09-01T17:02:20.129Z,21.70
2022-09-01T17:05:34.432Z,21.74
2022-09-01T17:08:52.485Z,21.55
2022-09-01T17:12:27.601Z,21.56
2022-09-01T17:15:41.072Z,21.45
2022-09-01T17:18:52.950Z,21.28
2022-09-01T17:22:05.510Z,21.15
2022-09-01T17:25:18.844Z,20.94
2022-09-01T17:28:45.439Z,20.71
2022-09-01T17:32:16.371Z,20.50
2022-09-01T17:35:37.844Z,20.25
2022-09-01T17:39:01.032Z,20.05
2022-09-01T17:42:14.460Z,19.82
2022-09-01T17:45:37.141Z,19.62
2022-09-01T17:48:57.065Z,19.50
2022-09-01T17:52:20.497Z,19.30
2022-09-01T17:55:38.233Z,19.15
2022-09-01T17:58:59.624Z,19.04
2022-09-01T18:02:20.055Z,18.89
2022-09-01T18:05:24.583Z,18.80
2022-09-01T18:08:40.294Z,18.71
2022-09-01T18:11:45.817Z,18.66
2022-09-01T18:15:14.472Z,18.61
2022-09-01T18:18:32.404Z,18.56
2022-09-01T18:21:38.159Z,18.51
2022-09-01T18:25:02.391Z,18.52
2022-09-01T18:28:05.457Z,18.45
2022-09-01T18:31:33.432Z,18.42
2022-09-01T18:34:57.615Z,18.39
2022-09-01T18:38:15.574Z,18.29
2022-09-01T18:42:12.251Z,18.20
2022-09-01T18:45:32.088Z,18.18
2022-09-01T18:48:58.261Z,18.12
2022-09-01T18:52:12.997Z,18.07
2022-09-01T18:55:21.561Z,18.04
2022-09-01T18:58:35.520Z,17.98
2022-09-01T19:01:50.736Z,17.98
2022-09-01T19:04:59.432Z,18.02
2022-09-01T19:08:31.137Z,18.00
2022-09-01T19:11:54.372Z,17.98
2022-09-01T19:15:03.929Z,17.91
2022-09-01T19:18:31.766Z,17.91
2022-09-01T19:21:36.373Z,17.89
2022-09-01T19:24:47.000Z,17.90
2022-09-01T19:28:02.012Z,17.99
2022-09-01T19:31:20.506Z,18.00
2022-09-01T19:34:31.490Z,17.93
2022-09-01T19:37:34.406Z,17.87
2022-09-01T19:40:40.601Z,17.84
2022-09-01T19:43:43.497Z,17.75
2022-09-01T19:46:52.092Z,17.67
2022-09-01T19:50:13.190Z,17.57
2022-09-01T19:53:43.623Z,17.56
2022-09-01T19:56:58.371Z,17.61
2022-09-01T20:00:16.812Z,17.69
2022-09-01T20:03:38.088Z,17.78
2022-09-01T20:06:44.600Z,17.85
2022-09-01T20:09:57.839Z,17.94
2022-09-01T20:13:06.526Z,17.92
2022-09-01T20:16:35.354Z,17.94
2022-09-01T20:20:06.548Z,17.91
2022-09-01T20:23:28.594Z,17.80
2022-09-01T20:26:39.192Z,17.66
2022-09-01T20:30:01.400Z,17.69
2022-09-01T20:33:15.210Z,17.79
2022-09-01T20:36:25.037Z,17.70
2022-09-01T20:39:53.423Z,17.62
2022-09-01T20:43:19.233Z,17.46
2022-09-01T20:46:23.447Z,17.36
2022-09-01T20:49:26.372Z,17.30
2022-09-01T20:53:05.502Z,17.24
2022-09-01T20:56:21.590Z,17.13
2022-09-01T20:59:47.744Z,17.05
2022-09-01T21:02:59.677Z,16.98
2022-09-01T21:06:16.107Z,16.92
2022-09-01T21:09:39.782Z,16.84
2022-09-01T21:13:02.953Z,16.77
2022-09-01T21:16:19.071Z,16.72
2022-09-01T21:19:43.666Z,16.72
2022-09-01T21:22:46.549Z,16.69
2022-09-01T21:25:49.814Z,16.64
2022-09-01T21:28:56.028Z,16.72
2022-09-01T21:31:59.198Z,16.72
2022-09-01T21:35:04.561Z,16.65
2022-09-01T21:38:07.335Z,16.60
2022-09-01T21:41:13.007Z,16.66
2022-09-01T21:44:16.279Z,16.67
2022-09-01T21:47:19.437Z,16.71
2022-09-01T21:50:23.801Z,16.80
2022-09-01T21:53:26.687Z,16.88
2022-09-01T21:56:29.520Z,16.98
2022-09-01T21:59:32.327Z,17.07
2022-09-01T22:02:35.956Z,17.31
2022-09-01T22:05:42.957Z,17.54
2022-09-01T22:08:45.489Z,17.51
2022-09-01T22:11:50.803Z,17.56
2022-09-01T22:14:53.328Z,17.53
2022-09-01T22:17:57.543Z,17.44
2022-09-01T22:21:07.913Z,17.34
2022-09-01T22:24:10.927Z,17.18
2022-09-01T22:27:13.466Z,17.21
2022-09-01T22:30:16.812Z,17.08
2022-09-01T22:33:21.106Z,16.96
2022-09-01T22:36:30.469Z,16.82
2022-09-01T22:39:33.033Z,16.79
2022-09-01T22:42:36.240Z,16.79
2022-09-01T22:45:42.414Z,16.72
2022-09-01T22:48:45.439Z,16.72
2022-09-01T22:51:48.664Z,16.80
2022-09-01T22:54:51.620Z,16.77
2022-09-01T22:57:54.173Z,16.85
2022-09-01T23:00:59.310Z,16.99
2022-09-01T23:04:05.095Z,16.90
2022-09-01T23:07:08.924Z,16.79
2022-09-01T23:10:11.822Z,16.66
2022-09-01T23:13:15.097Z,16.58
2022-09-01T23:16:17.727Z,16.49
2022-09-01T23:19:21.908Z,16.38
2022-09-01T23:22:24.444Z,16.35
2022-09-01T23:25:27.269Z,16.29
2022-09-01T23:28:30.018Z,16.24
2022-09-01T23:31:36.072Z,16.31
2022-09-01T23:34:39.034Z,16.39
2022-09-01T23:37:41.765Z,16.30
2022-09-01T23:40:49.368Z,16.24
2022-09-01T23:43:53.594Z,16.19
2022-09-01T23:46:56.131Z,16.12
2022-09-01T23:49:59.054Z,16.13
2022-09-01T23:53:01.603Z,16.13
2022-09-01T23:56:10.455Z,16.16
2022-09-01T23:59:13.729Z,16.20
